Time;durP1;ratioP1;P1;durP2;ratioP2;P2;SDS_P1;SDS_P2;PMS_P1;PMS_P2;Temp;Humidity;BMP_temperature;BMP_pressure;BME280_temperature;BME280_humidity;BME280_pressure;Samples;Min_cycle;Max_cycle;Signal;HPM_P1;HPM_P2
2022/06/26 00:01:42;;;;;;;5.72;5.22;;;;;;;19.72;71.88;100901.28;4993738;28;102302;-50
2022/06/26 00:04:10;;;;;;;6.57;5.80;;;;;;;19.71;71.84;100888.63;4994234;28;102401;-51
2022/06/26 00:06:37;;;;;;;6.00;5.53;;;;;;;19.71;71.78;100891.41;4993838;28;103942;-48
2022/06/26 00:09:04;;;;;;;7.45;5.90;;;;;;;19.71;71.79;100896.94;4995569;28;102156;-48
2022/06/26 00:11:33;;;;;;;6.15;5.20;;;;;;;19.72;72.02;100894.97;4993724;28;102258;-51
2022/06/26 00:14:00;;;;;;;6.05;5.30;;;;;;;19.72;72.10;100886.69;4996225;28;102446;-49
2022/06/26 00:16:26;;;;;;;6.90;5.97;;;;;;;19.73;71.93;100900.19;4994272;28;103936;-51
2022/06/26 00:18:53;;;;;;;5.93;5.38;;;;;;;19.71;71.97;100899.69;4995869;28;102203;-48
2022/06/26 00:21:19;;;;;;;6.18;5.68;;;;;;;19.71;71.84;100899.69;4993668;28;102329;-50
2022/06/26 00:23:46;;;;;;;6.07;5.57;;;;;;;19.72;71.66;100906.81;4995670;28;102476;-48
2022/06/26 00:26:12;;;;;;;6.07;5.57;;;;;;;19.71;72.03;100899.69;4981140;28;103904;-49
2022/06/26 00:28:41;;;;;;;5.93;5.35;;;;;;;19.72;71.96;100906.00;4989947;28;102328;-48
2022/06/26 00:31:08;;;;;;;6.20;5.70;;;;;;;19.70;71.89;100909.13;4994919;28;102300;-49
2022/06/26 00:33:34;;;;;;;5.50;5.00;;;;;;;19.71;71.79;100905.22;4996513;28;102389;-49
2022/06/26 00:36:01;;;;;;;5.95;5.45;;;;;;;19.71;72.09;100907.16;4992755;28;103810;-49
2022/06/26 00:38:27;;;;;;;5.82;5.32;;;;;;;19.70;72.17;100909.13;4993795;28;102440;-55
2022/06/26 00:40:54;;;;;;;5.97;5.45;;;;;;;19.70;72.15;100906.34;4994677;28;102406;-52
2022/06/26 00:43:20;;;;;;;5.93;5.43;;;;;;;19.71;72.15;100909.91;4995965;28;102123;-49
2022/06/26 00:45:48;;;;;;;5.93;5.43;;;;;;;19.71;72.34;100902.44;4993997;28;103923;-51
2022/06/26 00:48:15;;;;;;;6.40;5.90;;;;;;;19.70;72.47;100897.25;4994557;28;102101;-51
2022/06/26 00:50:41;;;;;;;6.05;5.45;;;;;;;19.69;72.08;100901.97;4993913;28;102603;-49
2022/06/26 00:53:08;;;;;;;6.13;5.63;;;;;;;19.68;72.02;100894.81;4994632;28;102233;-49
2022/06/26 00:55:35;;;;;;;5.55;5.05;;;;;;;19.68;71.88;100892.84;4993860;28;103858;-48
2022/06/26 00:58:02;;;;;;;6.32;5.72;;;;;;;19.69;72.06;100890.94;4994777;28;102632;-48
2022/06/26 01:00:29;;;;;;;6.40;5.32;;;;;;;19.67;71.70;100890.44;4994024;28;102219;-49
2022/06/26 01:02:57;;;;;;;6.13;5.55;;;;;;;19.67;71.85;100893.19;4994710;28;102200;-48
2022/06/26 01:05:23;;;;;;;5.97;5.47;;;;;;;19.67;72.14;100893.19;4994121;28;103652;-48
2022/06/26 01:07:50;;;;;;;6.57;5.28;;;;;;;19.67;71.88;100882.16;4994679;28;102135;-49
2022/06/26 01:10:18;;;;;;;5.82;5.32;;;;;;;19.67;71.83;100893.19;4993062;28;102441;-49
2022/06/26 01:12:45;;;;;;;5.67;5.20;;;;;;;19.66;71.80;100889.63;4995160;28;102230;-48
2022/06/26 01:15:11;;;;;;;5.40;4.90;;;;;;;19.67;72.29;100888.47;4995460;28;104045;-51
2022/06/26 01:17:38;;;;;;;5.75;5.25;;;;;;;19.66;72.16;100894.34;4997907;28;102444;-51
2022/06/26 01:20:08;;;;;;;6.10;5.50;;;;;;;19.66;71.94;100892.41;4997790;28;102318;-51
2022/06/26 01:22:37;;;;;;;5.93;5.32;;;;;;;19.65;72.14;100887.19;4998635;28;102185;-49
2022/06/26 01:25:05;;;;;;;5.55;5.07;;;;;;;19.66;71.72;100888.81;4996571;28;103971;-51
2022/06/26 01:27:40;;;;;;;5.45;5.05;;;;;;;19.66;72.03;100891.59;4997693;28;101909;-49
2022/06/26 01:30:08;;;;;;;5.97;5.40;;;;;;;19.65;72.16;100889.94;4996699;28;101969;-50
2022/06/26 01:32:35;;;;;;;6.00;5.10;;;;;;;19.67;72.35;100887.69;4997722;28;102132;-49
2022/06/26 01:35:02;;;;;;;6.35;5.75;;;;;;;19.66;71.89;100891.59;4996447;28;103940;-52
2022/06/26 01:37:29;;;;;;;5.80;5.30;;;;;;;19.65;72.09;100889.94;4997959;28;101887;-48
2022/06/26 01:39:57;;;;;;;5.63;5.20;;;;;;;19.65;72.28;100896.31;4996873;28;102308;-48
2022/06/26 01:42:23;;;;;;;6.00;5.57;;;;;;;19.65;72.29;100898.22;4997635;28;102515;-48
2022/06/26 01:44:50;;;;;;;7.50;5.32;;;;;;;19.65;72.28;100906.50;4996916;28;103975;-49
2022/06/26 01:47:16;;;;;;;5.75;5.18;;;;;;;19.65;72.55;100912.03;4995083;28;102443;-49
2022/06/26 01:49:43;;;;;;;5.60;5.20;;;;;;;19.65;72.26;100918.38;4997409;28;102402;-48
2022/06/26 01:52:09;;;;;;;5.47;5.07;;;;;;;19.64;72.42;100918.69;4997237;28;102265;-48
2022/06/26 01:54:37;;;;;;;6.05;5.55;;;;;;;19.65;72.53;100920.31;4994504;28;103741;-50
2022/06/26 01:57:05;;;;;;;6.28;5.68;;;;;;;19.64;72.22;100922.28;4994692;28;102317;-49
2022/06/26 01:59:32;;;;;;;5.47;4.97;;;;;;;19.63;72.12;100925.38;4995749;28;103359;-48
2022/06/26 02:01:58;;;;;;;5.65;5.15;;;;;;;19.62;72.22;100918.19;4995841;28;102521;-49
2022/06/26 02:04:25;;;;;;;5.75;5.25;;;;;;;19.63;72.39;100923.41;4994407;28;103882;-48
2022/06/26 02:06:52;;;;;;;6.28;5.47;;;;;;;19.63;72.55;100920.66;4997037;28;101973;-48
2022/06/26 02:14:51;;;;;;;6.13;5.63;;;;;;;19.63;72.14;100939.97;4995127;28;103977;-49
2022/06/26 02:17:18;;;;;;;5.57;5.18;;;;;;;19.63;72.56;100931.69;4997099;28;102298;-48
2022/06/26 02:19:44;;;;;;;5.53;5.13;;;;;;;19.64;72.47;100943.53;4996666;28;102347;-49
2022/06/26 02:22:10;;;;;;;5.47;4.97;;;;;;;19.62;72.59;100934.78;4996353;28;102301;-51
2022/06/26 02:24:39;;;;;;;5.95;5.45;;;;;;;19.62;72.05;100934.78;4996654;28;103958;-48
2022/06/26 02:27:07;;;;;;;6.13;5.47;;;;;;;19.64;72.26;100940.78;4995717;28;102129;-50
2022/06/26 02:29:33;;;;;;;6.33;4.87;;;;;;;19.64;72.42;100943.53;4995554;28;102499;-50
2022/06/26 02:32:00;;;;;;;6.55;5.50;;;;;;;19.64;72.20;100943.53;4996399;28;102190;-50
2022/06/26 02:34:27;;;;;;;5.85;5.43;;;;;;;19.64;72.18;100946.31;4994414;28;108747;-54
2022/06/26 02:36:53;;;;;;;5.78;5.25;;;;;;;19.63;72.35;100953.78;4993900;28;102200;-48
2022/06/26 02:39:20;;;;;;;5.30;4.85;;;;;;;19.63;72.36;100959.31;4995465;28;102680;-51
2022/06/26 02:41:47;;;;;;;6.03;5.53;;;;;;;19.64;72.37;100949.88;4996063;28;102215;-48
2022/06/26 02:44:16;;;;;;;5.38;4.97;;;;;;;19.64;72.13;100951.84;4994786;28;103919;-48
2022/06/26 02:46:43;;;;;;;5.78;5.28;;;;;;;19.65;72.16;100958.97;4996597;28;102154;-49
2022/06/26 02:49:10;;;;;;;6.00;5.50;;;;;;;19.65;72.15;100965.31;4995247;28;102216;-49
2022/06/26 02:51:36;;;;;;;6.00;5.50;;;;;;;19.65;72.15;100954.28;4995451;28;102300;-50
2022/06/26 02:54:03;;;;;;;6.00;5.50;;;;;;;19.66;72.32;100966.13;4996229;28;103925;-50
2022/06/26 02:56:30;;;;;;;6.60;6.10;;;;;;;19.67;72.58;100970.50;4995768;28;101984;-49
2022/06/26 02:58:56;;;;;;;6.22;5.47;;;;;;;19.65;72.35;100962.56;4996231;28;102361;-50
2022/06/26 03:01:24;;;;;;;5.47;4.85;;;;;;;19.66;72.52;100968.91;4977564;28;102188;-48
2022/06/26 03:03:51;;;;;;;5.80;5.30;;;;;;;19.67;72.40;100973.28;4979981;28;103997;-49
2022/06/26 03:06:17;;;;;;;5.75;5.25;;;;;;;19.66;72.09;100969.69;4995569;28;102340;-50
2022/06/26 03:08:44;;;;;;;5.32;4.93;;;;;;;19.70;71.65;100966.28;4996069;28;102395;-50
2022/06/26 03:11:10;;;;;;;5.45;4.97;;;;;;;19.71;71.96;100960.44;4996546;28;102508;-49
2022/06/26 03:13:37;;;;;;;5.53;5.07;;;;;;;19.71;71.95;100967.91;4994836;28;104070;-48
2022/06/26 03:16:04;;;;;;;5.72;5.22;;;;;;;19.70;72.21;100969.88;4995905;28;102132;-50
2022/06/26 03:18:32;;;;;;;5.50;5.00;;;;;;;19.71;72.37;100971.47;4995423;28;102021;-51
2022/06/26 03:20:59;;;;;;;5.70;5.20;;;;;;;19.71;72.10;100963.19;4996155;28;102544;-50
2022/06/26 03:24:00;;;;;;;5.88;5.35;;;;;;;19.72;72.07;100967.56;4994898;28;103894;-49
2022/06/26 03:26:12;;;;;;;5.43;4.93;;;;;;;19.72;72.18;100978.59;4994414;28;102413;-51
2022/06/26 03:28:38;;;;;;;5.30;4.90;;;;;;;19.73;72.05;100985.78;4996012;28;101933;-49
2022/06/26 03:31:05;;;;;;;5.43;4.93;;;;;;;19.73;72.21;100980.25;4995806;28;102502;-50
2022/06/26 03:33:34;;;;;;;5.10;4.70;;;;;;;19.74;72.14;100984.63;4994829;28;103927;-49
2022/06/26 03:36:00;;;;;;;4.75;4.35;;;;;;;19.74;72.13;100987.41;4994585;28;102039;-49
2022/06/26 03:38:27;;;;;;;5.35;4.95;;;;;;;19.75;72.23;100989.00;4995354;28;102475;-48
2022/06/26 03:40:53;;;;;;;5.88;5.25;;;;;;;19.74;72.01;100984.63;4995644;28;102154;-51
2022/06/26 03:43:20;;;;;;;4.97;4.57;;;;;;;19.75;72.41;100989.00;4995537;28;103938;-48
2022/06/26 03:45:46;;;;;;;4.80;4.40;;;;;;;19.76;72.42;100985.09;4995484;28;102559;-48
2022/06/26 03:48:13;;;;;;;5.65;5.15;;;;;;;19.76;72.10;100985.09;4995313;28;102107;-49
2022/06/26 03:50:41;;;;;;;5.45;5.05;;;;;;;19.76;72.20;100985.09;4995457;28;102187;-48
2022/06/26 03:53:08;;;;;;;5.33;4.90;;;;;;;19.77;72.25;100986.75;4995364;28;104055;-47
2022/06/26 03:55:35;;;;;;;5.40;4.90;;;;;;;19.78;72.11;100993.88;4995073;28;102092;-50
2022/06/26 03:58:02;;;;;;;5.68;5.18;;;;;;;19.78;72.06;100990.31;4993658;28;103555;-48
2022/06/26 04:00:28;;;;;;;5.32;4.88;;;;;;;19.77;72.36;100988.69;4995233;28;102588;-48
2022/06/26 04:02:55;;;;;;;5.22;4.82;;;;;;;19.78;72.05;100993.88;4993095;28;104252;-49
2022/06/26 04:05:21;;;;;;;4.50;4.20;;;;;;;19.78;72.15;100999.41;4992897;28;102277;-48
2022/06/26 04:07:49;;;;;;;5.22;4.82;;;;;;;19.79;72.16;100997.44;4993954;28;102196;-50
2022/06/26 04:10:16;;;;;;;5.20;4.70;;;;;;;19.79;72.13;101001.03;4995676;28;102547;-50
2022/06/26 04:12:43;;;;;;;5.10;4.57;;;;;;;19.79;72.12;100995.50;4994353;28;104084;-49
2022/06/26 04:15:10;;;;;;;4.68;4.28;;;;;;;19.79;72.21;100989.97;4995430;28;102348;-48
2022/06/26 04:17:37;;;;;;;5.78;5.28;;;;;;;19.81;72.37;100987.72;4994896;28;101984;-49
2022/06/26 04:20:05;;;;;;;5.20;4.70;;;;;;;19.80;72.19;100975.06;4995182;28;102284;-48
2022/06/26 04:22:32;;;;;;;6.05;5.55;;;;;;;19.82;72.10;100972.75;4994383;28;103874;-48
2022/06/26 04:25:01;;;;;;;5.18;4.72;;;;;;;19.81;72.14;100971.13;4994922;28;102284;-50
2022/06/26 04:27:27;;;;;;;5.65;5.15;;;;;;;19.82;72.28;100983.81;4994016;28;102412;-51
2022/06/26 04:29:54;;;;;;;5.30;4.90;;;;;;;19.82;72.15;100974.72;4995863;28;102394;-48
2022/06/26 04:32:20;;;;;;;5.63;5.13;;;;;;;19.82;72.01;100981.03;4991416;28;103883;-51
2022/06/26 04:34:47;;;;;;;5.55;5.05;;;;;;;19.82;72.22;100975.53;4993666;28;102088;-49
2022/06/26 04:37:13;;;;;;;5.20;4.80;;;;;;;19.83;72.35;100984.59;4994072;28;102153;-48
2022/06/26 04:39:40;;;;;;;5.82;4.65;;;;;;;19.82;72.23;100992.09;4994597;28;102186;-48
2022/06/26 04:42:08;;;;;;;5.57;5.07;;;;;;;19.84;72.00;100983.50;4993136;28;104295;-48
2022/06/26 04:44:34;;;;;;;5.35;4.88;;;;;;;19.84;72.22;100997.31;4994626;28;101934;-49
2022/06/26 04:47:01;;;;;;;5.57;5.10;;;;;;;19.84;72.06;101003.63;4993898;28;102404;-49
2022/06/26 04:49:27;;;;;;;4.88;4.53;;;;;;;19.84;72.13;100995.34;4995691;28;102296;-48
2022/06/26 04:51:54;;;;;;;5.18;4.78;;;;;;;19.84;72.03;100989.81;4993870;28;103904;-50
2022/06/26 04:54:21;;;;;;;5.05;4.65;;;;;;;19.85;72.05;100993.38;4978317;28;102047;-50
2022/06/26 04:56:47;;;;;;;5.40;4.90;;;;;;;19.87;72.04;101002.16;4984785;28;102381;-48
2022/06/26 04:59:15;;;;;;;5.25;4.85;;;;;;;19.87;71.91;100986.41;4999268;28;102325;-50
2022/06/26 05:01:42;;;;;;;5.20;4.70;;;;;;;19.89;71.94;100992.41;4995951;28;104015;-46
2022/06/26 05:04:08;;;;;;;5.80;5.20;;;;;;;19.89;71.92;100995.16;4998451;28;101889;-48
2022/06/26 05:06:35;;;;;;;5.63;5.13;;;;;;;19.88;72.04;100988.03;4997577;28;102514;-50
2022/06/26 05:09:02;;;;;;;7.25;5.10;;;;;;;19.90;71.79;100990.44;4997782;28;102234;-48
2022/06/26 05:11:28;;;;;;;5.68;5.18;;;;;;;19.91;71.81;100990.13;4996732;28;104049;-47
2022/06/26 05:13:55;;;;;;;5.15;4.65;;;;;;;19.93;71.77;100989.78;4998203;28;102107;-48
2022/06/26 05:16:23;;;;;;;5.65;5.15;;;;;;;19.94;71.50;100985.88;4997147;28;102454;-49
2022/06/26 05:18:49;;;;;;;6.93;5.07;;;;;;;19.96;71.67;100993.88;4998501;28;102398;-48
2022/06/26 05:21:16;;;;;;;5.50;5.07;;;;;;;19.97;71.46;100987.19;4995662;28;103908;-46
2022/06/26 05:23:42;;;;;;;5.78;5.30;;;;;;;19.97;71.55;100990.75;4996077;28;103125;-46
2022/06/26 05:26:09;;;;;;;5.22;4.72;;;;;;;19.98;71.54;100986.03;4985843;28;102070;-49
2022/06/26 05:28:36;;;;;;;5.53;5.03;;;;;;;20.00;71.61;100989.31;4998422;28;102178;-49
2022/06/26 05:31:02;;;;;;;5.00;4.60;;;;;;;20.02;71.66;100989.78;4996892;28;103913;-47
2022/06/26 05:33:31;;;;;;;5.85;5.25;;;;;;;20.06;71.36;100993.53;4997302;28;102144;-47
2022/06/26 05:35:58;;;;;;;4.90;4.50;;;;;;;20.07;71.51;100995.13;4996334;28;102272;-49
2022/06/26 05:38:24;;;;;;;6.00;5.28;;;;;;;20.06;71.48;100988.81;4998194;28;102169;-48
2022/06/26 05:40:51;;;;;;;5.75;5.25;;;;;;;20.06;71.60;100979.72;4996153;28;103879;-49
2022/06/26 05:43:17;;;;;;;5.35;4.95;;;;;;;20.05;71.41;100992.72;4997902;28;101979;-48
2022/06/26 05:45:44;;;;;;;5.80;5.03;;;;;;;20.05;71.46;100989.94;4996663;28;102251;-46
2022/06/26 05:48:10;;;;;;;5.88;5.38;;;;;;;20.04;71.50;100995.78;4997900;28;102445;-49
2022/06/26 05:50:40;;;;;;;5.70;5.20;;;;;;;20.03;71.64;100988.66;4996730;28;104754;-47
2022/06/26 05:53:06;;;;;;;6.17;5.57;;;;;;;20.04;71.59;100987.50;4996999;28;102397;-49
2022/06/26 05:55:33;;;;;;;5.28;4.88;;;;;;;20.02;71.60;100984.28;4997074;28;102043;-47
2022/06/26 05:58:00;;;;;;;6.18;4.93;;;;;;;20.04;71.69;100987.50;4996515;28;102122;-47
2022/06/26 06:00:27;;;;;;;5.15;4.72;;;;;;;20.05;71.52;100997.41;4994783;28;104055;-48
2022/06/26 06:02:54;;;;;;;6.07;5.47;;;;;;;20.05;71.68;101002.94;4995424;28;102295;-47
2022/06/26 06:05:21;;;;;;;5.70;5.25;;;;;;;20.06;71.71;100999.03;4995237;28;102780;-46
2022/06/26 06:07:49;;;;;;;5.80;5.30;;;;;;;20.05;71.56;100997.41;4996515;28;102208;-47
2022/06/26 06:10:18;;;;;;;4.95;4.57;;;;;;;20.06;71.40;100999.84;4994364;28;103947;-47
2022/06/26 06:12:44;;;;;;;5.32;4.93;;;;;;;20.05;71.57;100997.41;4995215;28;102008;-49
2022/06/26 06:15:12;;;;;;;5.32;4.82;;;;;;;20.05;71.45;101003.75;4995340;28;102572;-49
2022/06/26 06:17:42;;;;;;;6.28;5.78;;;;;;;20.04;71.45;101001.31;4994136;28;102856;-49
2022/06/26 06:20:12;;;;;;;5.88;5.35;;;;;;;20.05;71.57;101002.94;4994888;28;104031;-48
2022/06/26 06:22:40;;;;;;;5.75;5.07;;;;;;;20.05;71.56;100997.41;4989738;28;102793;-46
2022/06/26 06:25:10;;;;;;;5.63;5.13;;;;;;;20.05;71.77;101005.69;4993362;28;102223;-47
2022/06/26 06:27:37;;;;;;;6.13;5.63;;;;;;;20.06;71.49;101002.63;4991101;28;102771;-49
2022/06/26 06:30:05;;;;;;;5.25;4.80;;;;;;;20.05;71.54;101002.94;4994742;28;103906;-46
2022/06/26 06:32:32;;;;;;;7.17;6.07;;;;;;;20.06;71.82;100999.03;4995977;28;102206;-48
2022/06/26 06:34:58;;;;;;;5.97;5.47;;;;;;;20.05;71.57;100997.41;4996665;28;102284;-49
2022/06/26 06:37:25;;;;;;;6.15;5.28;;;;;;;20.06;71.61;100990.75;4996791;28;102185;-46
2022/06/26 06:39:52;;;;;;;5.63;5.18;;;;;;;20.08;71.42;100996.75;4995693;28;103343;-46
2022/06/26 06:42:20;;;;;;;6.18;5.68;;;;;;;20.09;71.49;100998.41;4996594;28;102252;-48
2022/06/26 06:44:46;;;;;;;6.17;5.67;;;;;;;20.11;71.54;100996.91;4995643;28;102295;-46
2022/06/26 06:47:13;;;;;;;5.70;5.20;;;;;;;20.12;71.48;100994.94;4990309;28;103417;-47
2022/06/26 06:49:40;;;;;;;6.43;5.72;;;;;;;20.13;71.44;100993.81;4992897;28;103903;-47
2022/06/26 06:52:07;;;;;;;5.65;5.15;;;;;;;20.17;71.50;100997.56;4994052;28;102455;-47
2022/06/26 06:54:35;;;;;;;9.35;5.43;;;;;;;20.17;71.33;100995.59;4994841;28;102510;-50
2022/06/26 06:57:02;;;;;;;6.10;5.47;;;;;;;20.17;71.23;100992.84;4990992;28;103123;-49
2022/06/26 06:59:30;;;;;;;6.10;5.60;;;;;;;20.19;71.40;101003.53;4994652;28;103884;-47
2022/06/26 07:01:57;;;;;;;5.53;4.90;;;;;;;20.22;71.10;101008.41;4993261;28;102313;-48
2022/06/26 07:04:23;;;;;;;5.20;4.70;;;;;;;20.23;71.08;101006.47;4994580;28;102460;-46
2022/06/26 07:06:50;;;;;;;5.45;4.85;;;;;;;20.25;71.00;101013.28;4996632;28;102597;-48
2022/06/26 07:09:17;;;;;;;5.38;4.97;;;;;;;20.26;70.99;101014.09;4994348;28;103963;-46
2022/06/26 07:11:43;;;;;;;5.60;5.10;;;;;;;20.27;70.99;101012.97;4991760;28;102478;-46
2022/06/26 07:14:10;;;;;;;5.68;5.18;;;;;;;20.29;70.90;101014.25;4992472;28;102162;-46
2022/06/26 07:16:38;;;;;;;4.90;4.50;;;;;;;20.29;71.05;101014.25;4983276;28;102253;-47
2022/06/26 07:19:05;;;;;;;5.43;4.93;;;;;;;20.31;71.06;101022.22;4995131;28;103941;-47
2022/06/26 07:21:32;;;;;;;5.22;4.80;;;;;;;20.30;70.93;101015.91;4995292;28;103125;-47
2022/06/26 07:23:58;;;;;;;5.60;5.20;;;;;;;20.30;71.05;101018.66;4995673;28;102165;-50
2022/06/26 07:26:25;;;;;;;5.32;4.82;;;;;;;20.31;71.02;101025.00;4996622;28;102254;-48
2022/06/26 07:28:52;;;;;;;5.18;4.78;;;;;;;20.32;71.07;101024.66;4994906;28;104038;-49
2022/06/26 07:31:18;;;;;;;5.18;4.78;;;;;;;20.34;70.95;101025.16;4996043;28;102354;-46
2022/06/26 07:36:32;;;;;;;5.20;4.80;;;;;;;20.34;70.92;101022.38;4992956;28;102677;-47
2022/06/26 07:38:59;;;;;;;5.75;5.25;;;;;;;20.34;70.90;101033.44;4994530;28;107909;-47
2022/06/26 07:41:26;;;;;;;5.57;5.07;;;;;;;20.33;70.94;101029.03;4994146;28;102775;-47
2022/06/26 07:43:52;;;;;;;9.75;6.10;;;;;;;20.31;71.18;101036.03;4993993;28;102139;-48
2022/06/26 07:46:19;;;;;;;6.00;5.50;;;;;;;20.30;71.31;101032.47;4996644;28;102134;-47
2022/06/26 07:48:47;;;;;;;5.30;4.90;;;;;;;20.30;71.03;101032.47;4993985;28;104059;-48
2022/06/26 07:51:14;;;;;;;6.47;5.37;;;;;;;20.30;71.04;101029.72;4993136;28;102162;-48
2022/06/26 07:53:40;;;;;;;5.95;5.40;;;;;;;20.30;71.01;101028.88;4993540;28;101853;-47
2022/06/26 07:56:07;;;;;;;5.63;5.22;;;;;;;20.29;71.25;101028.06;4995018;28;102661;-47
2022/06/26 07:58:34;;;;;;;5.70;5.20;;;;;;;20.29;71.17;101030.84;4993054;28;103994;-47
2022/06/26 08:01:01;;;;;;;6.70;6.00;;;;;;;20.29;71.18;101030.84;4993291;28;102534;-46
2022/06/26 08:03:28;;;;;;;5.93;5.43;;;;;;;20.27;71.04;101024.84;4993144;28;102492;-48
2022/06/26 08:05:56;;;;;;;6.45;5.85;;;;;;;20.27;71.48;101026.78;4993749;28;102212;-46
2022/06/26 08:08:23;;;;;;;6.90;6.20;;;;;;;20.28;71.27;101033.94;4990924;28;104075;-47
2022/06/26 08:10:49;;;;;;;5.88;5.00;;;;;;;20.29;71.33;101035.56;4993968;28;102907;-47
2022/06/26 08:13:16;;;;;;;6.88;6.25;;;;;;;20.27;71.42;101038.66;4992560;28;102329;-50
2022/06/26 08:15:43;;;;;;;6.25;5.75;;;;;;;20.26;71.35;101028.72;4995028;28;102305;-47
2022/06/26 08:18:10;;;;;;;5.13;4.72;;;;;;;20.27;71.22;101033.13;4990726;28;103842;-46
2022/06/26 08:20:36;;;;;;;5.72;5.25;;;;;;;20.31;71.22;101028.56;4993548;28;102234;-46
2022/06/26 08:23:04;;;;;;;5.22;4.82;;;;;;;20.33;71.22;101019.94;4992914;28;102184;-46
2022/06/26 08:25:31;;;;;;;5.30;4.83;;;;;;;20.33;71.00;101020.72;4989183;28;103051;-47
2022/06/26 08:27:59;;;;;;;6.45;5.43;;;;;;;20.36;71.05;101020.06;4992783;28;103688;-50
2022/06/26 08:30:26;;;;;;;5.80;5.18;;;;;;;20.37;71.16;101018.94;4993060;28;102394;-47
2022/06/26 08:32:58;;;;;;;6.03;5.40;;;;;;;20.37;71.26;101027.22;4992879;28;102074;-46
2022/06/26 08:35:26;;;;;;;5.88;4.93;;;;;;;20.39;71.10;101024.16;4994649;28;102138;-47
2022/06/26 08:37:53;;;;;;;5.47;4.97;;;;;;;20.38;71.22;101031.63;4993317;28;103829;-46
2022/06/26 08:40:22;;;;;;;5.78;5.28;;;;;;;20.38;71.12;101023.34;4991144;28;102284;-46
2022/06/26 08:42:52;;;;;;;5.25;4.85;;;;;;;20.40;71.09;101026.56;4989007;28;103495;-46
2022/06/26 08:45:19;;;;;;;5.63;5.13;;;;;;;20.38;71.03;101028.06;4994471;28;102148;-47
2022/06/26 08:47:49;;;;;;;6.05;5.55;;;;;;;20.37;71.10;101029.97;4990608;28;103915;-46
2022/06/26 08:50:19;;;;;;;6.55;5.60;;;;;;;20.38;71.39;101022.53;4991839;28;102484;-47
2022/06/26 08:52:47;;;;;;;5.93;5.38;;;;;;;20.41;71.13;101021.84;4989157;28;104470;-46
2022/06/26 08:55:14;;;;;;;7.63;5.80;;;;;;;20.44;71.19;101014.84;4991736;28;102237;-46
2022/06/26 08:57:43;;;;;;;5.47;5.00;;;;;;;20.44;71.15;101025.91;4989890;28;103775;-47
2022/06/26 09:00:10;;;;;;;7.30;5.43;;;;;;;20.45;70.93;101035.81;4990895;28;102325;-48
2022/06/26 09:02:38;;;;;;;5.63;5.13;;;;;;;20.43;71.29;101029.81;4993991;28;101926;-46
2022/06/26 09:05:05;;;;;;;6.13;5.43;;;;;;;20.41;71.37;101052.25;4995681;28;102238;-48
2022/06/26 09:07:32;;;;;;;6.20;5.57;;;;;;;20.41;71.19;101055.00;4992938;28;104115;-47
2022/06/26 09:10:09;;;;;;;6.35;5.13;;;;;;;20.42;71.11;101062.19;4993442;28;102312;-48
2022/06/26 09:12:36;;;;;;;6.00;5.40;;;;;;;20.39;71.24;101057.31;4988838;28;102063;-48
2022/06/26 09:15:04;;;;;;;6.78;6.05;;;;;;;20.39;71.62;101060.88;4991937;28;103606;-48
2022/06/26 09:17:32;;;;;;;6.07;5.25;;;;;;;20.37;71.26;101065.91;4991840;28;103893;-47
2022/06/26 09:19:58;;;;;;;6.65;6.05;;;;;;;20.33;71.47;101064.97;4993306;28;102398;-47
2022/06/26 09:22:25;;;;;;;6.97;6.38;;;;;;;20.33;71.45;101076.00;4991271;28;102167;-47
2022/06/26 09:24:54;;;;;;;6.40;5.80;;;;;;;20.31;71.34;101072.78;4990817;28;102396;-47
2022/06/26 09:27:21;;;;;;;6.38;5.80;;;;;;;20.30;71.45;101079.47;4987842;28;103880;-46
2022/06/26 09:29:50;;;;;;;6.20;5.70;;;;;;;20.27;71.43;101077.34;4993632;28;103227;-49
2022/06/26 09:32:21;;;;;;;5.57;5.13;;;;;;;20.24;71.70;101086.28;4993684;28;101940;-48
2022/06/26 09:34:51;;;;;;;6.07;5.57;;;;;;;20.20;71.87;101087.28;4995141;28;102368;-47
2022/06/26 09:37:19;;;;;;;5.87;5.37;;;;;;;20.19;72.00;101075.38;4993944;28;104076;-50
2022/06/26 09:39:46;;;;;;;5.80;5.30;;;;;;;20.16;71.81;101073.31;4991108;28;102502;-49
2022/06/26 09:42:17;;;;;;;5.57;5.07;;;;;;;20.14;72.12;101079.16;4981851;28;102727;-50
2022/06/26 09:44:45;;;;;;;5.60;5.20;;;;;;;20.13;72.19;101071.19;4980384;28;102155;-50
2022/06/26 09:47:24;;;;;;;5.80;5.20;;;;;;;20.13;72.25;101065.66;4992322;28;103890;-49
2022/06/26 09:49:53;;;;;;;5.28;4.88;;;;;;;20.12;72.33;101059.34;4987314;28;102414;-48
2022/06/26 09:52:22;;;;;;;5.93;5.43;;;;;;;20.12;72.10;101050.22;4993823;28;103628;-48
2022/06/26 09:54:49;;;;;;;5.85;5.35;;;;;;;20.11;72.16;101049.41;4994358;28;102070;-46
2022/06/26 09:57:16;;;;;;;6.18;5.68;;;;;;;20.10;72.23;101046.97;4994675;28;103813;-47
2022/06/26 09:59:43;;;;;;;6.43;5.82;;;;;;;20.09;72.17;101043.41;4995228;28;102167;-47
2022/06/26 10:07:51;;;;;;;5.68;5.18;;;;;;;20.10;72.20;101055.25;4992533;28;103856;-47
2022/06/26 10:10:22;;;;;;;6.15;5.57;;;;;;;20.10;72.27;101058.84;4993876;28;103744;-48
2022/06/26 10:12:52;;;;;;;5.85;5.35;;;;;;;20.09;72.35;101054.47;4993299;28;102284;-47
2022/06/26 10:15:20;;;;;;;7.28;5.45;;;;;;;20.10;72.35;101060.78;4992787;28;102280;-46
2022/06/26 10:18:04;;;;;;;6.03;5.47;;;;;;;20.09;72.38;101060.00;4995082;28;103909;-49
2022/06/26 10:20:34;;;;;;;5.60;5.13;;;;;;;20.09;72.36;101064.69;4989731;28;102286;-50
2022/06/26 10:23:01;;;;;;;5.75;5.25;;;;;;;20.09;72.32;101056.41;4993473;28;102561;-47
2022/06/26 10:25:29;;;;;;;5.32;4.93;;;;;;;20.09;72.18;101064.69;4989865;28;102212;-46
2022/06/26 10:27:56;;;;;;;6.20;5.53;;;;;;;20.09;72.38;101059.19;4989187;28;104058;-46
2022/06/26 10:30:25;;;;;;;6.38;5.88;;;;;;;20.09;72.32;101061.94;4991879;28;102251;-46
2022/06/26 10:33:09;;;;;;;6.03;5.53;;;;;;;20.09;72.25;101053.66;4992748;28;102035;-46
2022/06/26 10:35:40;;;;;;;5.68;5.18;;;;;;;20.08;72.21;101046.47;4990468;28;103649;-46
2022/06/26 10:38:18;;;;;;;6.03;5.50;;;;;;;20.08;72.38;101043.72;4990767;28;104044;-48
2022/06/26 10:43:41;;;;;;;5.85;5.25;;;;;;;20.08;72.33;101036.25;4991418;28;102756;-49
2022/06/26 10:46:12;;;;;;;6.05;5.45;;;;;;;20.09;72.35;101042.59;4989785;28;102430;-48
2022/06/26 10:48:50;;;;;;;5.28;4.88;;;;;;;20.08;72.33;101039.00;4992180;28;104706;-49
2022/06/26 10:51:25;;;;;;;5.20;4.80;;;;;;;20.08;72.35;101038.19;4994996;28;101812;-48
2022/06/26 10:53:52;;;;;;;5.50;5.00;;;;;;;20.10;72.19;101038.69;4986255;28;102345;-47
2022/06/26 10:56:18;;;;;;;5.55;5.15;;;;;;;20.09;72.09;101037.88;4996401;28;102319;-50
2022/06/26 10:58:48;;;;;;;5.63;5.13;;;;;;;20.09;72.04;101037.88;4993401;28;103371;-46
2022/06/26 11:01:17;;;;;;;5.40;4.90;;;;;;;20.09;72.10;101032.34;4994549;28;102257;-46
2022/06/26 11:03:44;;;;;;;5.85;5.35;;;;;;;20.10;72.12;101027.63;4995567;28;102036;-49
2022/06/26 11:06:12;;;;;;;5.90;5.30;;;;;;;20.09;72.15;101031.53;4995273;28;103023;-46
2022/06/26 11:08:44;;;;;;;6.03;5.47;;;;;;;20.09;72.18;101026.03;4995589;28;104080;-46
2022/06/26 11:11:15;;;;;;;5.18;4.68;;;;;;;20.09;72.21;101026.03;4994490;28;102031;-46
2022/06/26 11:13:50;;;;;;;5.28;4.88;;;;;;;20.09;72.19;101040.66;4995936;28;102105;-46
2022/06/26 11:16:17;;;;;;;5.25;4.85;;;;;;;20.09;72.25;101039.84;4996163;28;102121;-46
2022/06/26 11:18:43;;;;;;;5.30;4.78;;;;;;;20.09;72.23;101034.31;4993876;28;104005;-46
2022/06/26 11:21:10;;;;;;;5.35;4.95;;;;;;;20.10;72.12;101038.69;4995271;28;102078;-47
2022/06/26 11:23:38;;;;;;;5.47;4.97;;;;;;;20.09;72.24;101031.53;4995789;28;102222;-46
2022/06/26 11:26:09;;;;;;;5.30;4.90;;;;;;;20.08;72.07;101041.75;4997070;28;102237;-48
2022/06/26 11:28:40;;;;;;;5.80;5.30;;;;;;;20.09;72.11;101046.16;4991664;28;107904;-48
2022/06/26 11:31:09;;;;;;;5.28;4.78;;;;;;;20.10;71.98;101049.75;4989610;28;102820;-46
2022/06/26 11:33:37;;;;;;;5.53;5.07;;;;;;;20.09;72.33;101037.06;4993739;28;102087;-46
2022/06/26 11:36:06;;;;;;;7.28;5.43;;;;;;;20.59;74.68;101042.81;4993572;28;102353;-46